CheckWX is a tool to help pilots better visualize weather data.  It is not intended as a substitute for an official pre-flight weather briefing.

23:35:56 UTC

EGJJ TAF
Jersey Airport
Saint Helier, Jersey
TAF EGJJ 091359Z 0915/1000 26013KT 9999 FEW006 SCT012 BKN018 PROB40 TEMPO 0915/1000 3000 DZ BR SCT003 BKN006 PROB30 TEMPO 0918/0921 0500 FG OVC000

Jul-9@
15:00 UTC

Jul-9 @ 15:00 UTC

Jul-10@
00:00 UTC

Jul-10 @ 00:00 UTC

TAF EGJJ 091359Z 0915/1000 26013KT 9999 FEW006 SCT012 BKN018
Wind
  • 260° at 13 KTS
Cloud Levels
  • Few at 600' AGL
  • Scattered at 1,200' AGL
  • Broken at 1,800' AGL

Jul-9@
15:00 UTC

Jul-9 @ 15:00 UTC

Jul-10@
00:00 UTC

Jul-10 @ 00:00 UTC

PROB40 TEMPO 0915/1000 3000 DZ BR SCT003 BKN006

Temporary - 40% Likelihood

Temporary - 40% Likelihood during this time.

Conditions
Drizzle, Mist
Cloud Levels
  • Scattered at 300' AGL
  • Broken at 600' AGL

Jul-9@
18:00 UTC

Jul-9 @ 18:00 UTC

Jul-9@
21:00 UTC

Jul-9 @ 21:00 UTC

PROB30 TEMPO 0918/0921 0500 FG OVC000

Expired

Conditions
Fog
Cloud Levels
  • Overcast